Terminal Aerodrome Forecast
Issued by NWS Birmingham, AL

Home | Current Version | Previous Version | Text Only | Print | Product List | Glossary On
Versions: 1 2 3 4 5 6 7 8 9 10 11 12 13 14 15 16 17 18 19 20 21
000
FTUS44 KBMX 281846 AAA
TAFBHM
TAF AMD
KBHM 281846Z 2819/2918 09005KT P6SM SCT045 SCT120 BKN250
     FM282000 07005KT P6SM VCSH BKN045 BKN120 OVC250
     FM282300 05006KT 6SM -RA BR BKN025 OVC100
     FM290200 07006KT 4SM -RA BR OVC015=

USA.gov is the U.S. government's official web portal to all federal, state and local government web resources and services.